Time;durP1;ratioP1;P1;durP2;ratioP2;P2;SDS_P1;SDS_P2;PMS_P1;PMS_P2;Temp;Humidity;BMP_temperature;BMP_pressure;BME280_temperature;BME280_humidity;BME280_pressure;Samples;Min_cycle;Max_cycle;Signal;HPM_P1;HPM_P2
2022/06/09 00:00:25;;;;;;;4.32;2.97;;;;;;;19.92;100.00;-24371.09;5041505;28;21015;-63
2022/06/09 00:02:54;;;;;;;3.28;2.60;;;;;;;19.53;100.00;-24360.53;5041625;28;20222;-63
2022/06/09 00:05:22;;;;;;;3.72;2.70;;;;;;;19.58;100.00;-24361.78;5041145;28;20717;-62
2022/06/09 00:07:50;;;;;;;3.75;2.47;;;;;;;19.53;100.00;-24360.38;5040705;28;20185;-61
2022/06/09 00:10:23;;;;;;;2.92;2.42;;;;;;;19.51;100.00;-24359.97;5040528;28;20178;-64
2022/06/09 00:12:49;;;;;;;4.70;2.60;;;;;;;19.88;100.00;-24369.97;5042707;28;20174;-62
2022/06/09 00:15:14;;;;;;;3.92;2.40;;;;;;;19.67;100.00;-24364.44;5041816;28;20189;-64
2022/06/09 00:17:43;;;;;;;4.70;2.80;;;;;;;19.59;100.00;-24362.06;5041138;28;20649;-63
2022/06/09 00:20:10;;;;;;;5.20;2.95;;;;;;;19.60;100.00;-24362.34;5040996;28;20210;-60
2022/06/09 00:22:35;;;;;;;3.85;2.78;;;;;;;19.97;100.00;-24372.50;5045314;28;20179;-63
2022/06/09 00:25:01;;;;;;;4.82;3.05;;;;;;;19.91;100.00;-24370.97;5020618;28;21025;-63
2022/06/09 00:27:26;;;;;;;4.53;3.10;;;;;;;19.88;100.00;-24370.13;5041412;28;21116;-62
2022/06/09 00:29:52;;;;;;;3.63;2.33;;;;;;;19.91;100.00;-24370.97;5042138;28;20640;-62
2022/06/09 00:32:17;;;;;;;4.00;3.08;;;;;;;19.87;100.00;-24369.72;5039435;28;20167;-61
2022/06/09 00:34:43;;;;;;;4.18;2.55;;;;;;;19.38;100.00;-24356.50;5022078;28;20191;-63
2022/06/09 00:37:08;;;;;;;3.78;2.67;;;;;;;19.35;100.00;-24355.66;5043097;28;20190;-64
2022/06/09 00:39:34;;;;;;;4.53;3.00;;;;;;;19.45;100.00;-24358.31;5040831;28;20189;-61
2022/06/09 00:41:59;;;;;;;3.58;2.53;;;;;;;19.55;100.00;-24360.94;5038665;28;20207;-63
2022/06/09 00:44:27;;;;;;;3.90;2.75;;;;;;;19.97;100.00;-24372.50;5039033;28;20619;-61
2022/06/09 00:47:01;;;;;;;3.85;2.55;;;;;;;19.88;100.00;-24369.97;5042460;28;20677;-61
2022/06/09 00:49:42;;;;;;;4.45;2.90;;;;;;;19.54;100.00;-24360.66;5036106;28;20181;-63
2022/06/09 00:52:10;;;;;;;5.32;2.88;;;;;;;19.57;100.00;-24361.50;5040875;28;21046;-61
2022/06/09 00:54:48;;;;;;;4.68;2.90;;;;;;;19.91;100.00;-24370.97;5039878;28;20194;-61
2022/06/09 00:57:28;;;;;;;4.22;2.60;;;;;;;19.88;100.00;-24369.97;5038442;28;20229;-61
2022/06/09 01:00:02;;;;;;;3.75;2.88;;;;;;;19.84;100.00;-24369.00;5038931;28;20216;-64
2022/06/09 01:02:28;;;;;;;4.68;2.75;;;;;;;19.62;100.00;-24362.91;5040552;28;20297;-62
2022/06/09 01:04:54;;;;;;;3.55;2.80;;;;;;;19.92;100.00;-24371.09;5041203;28;20186;-61
2022/06/09 01:07:37;;;;;;;4.03;2.70;;;;;;;19.69;100.00;-24364.84;5038245;28;21825;-64
2022/06/09 01:10:04;;;;;;;4.28;3.10;;;;;;;19.74;100.00;-24366.38;5037992;28;20187;-61
2022/06/09 01:12:31;;;;;;;3.97;2.55;;;;;;;20.00;100.00;-24373.31;5042735;28;20182;-64
2022/06/09 01:15:19;;;;;;;4.93;2.72;;;;;;;20.11;100.00;-24376.50;5040535;28;20186;-64
2022/06/09 01:17:59;;;;;;;4.28;3.15;;;;;;;19.83;100.00;-24368.72;5039078;28;20187;-63
2022/06/09 01:21:09;;;;;;;4.18;2.70;;;;;;;19.97;100.00;-24372.50;5041784;28;20293;-64
2022/06/09 01:23:57;;;;;;;3.78;2.60;;;;;;;20.02;100.00;-24374.00;5044777;28;20182;-63
2022/06/09 01:26:40;;;;;;;4.43;2.97;;;;;;;19.87;100.00;-24369.84;5045970;28;20556;-64
2022/06/09 01:29:43;;;;;;;4.32;2.97;;;;;;;19.69;100.00;-24364.97;5043200;28;20186;-63
2022/06/09 01:32:16;;;;;;;3.28;2.63;;;;;;;19.46;100.00;-24358.59;5048406;28;20265;-61
2022/06/09 01:35:07;;;;;;;4.47;3.03;;;;;;;19.87;100.00;-24369.72;5045746;28;21029;-64
2022/06/09 01:37:38;;;;;;;4.70;2.95;;;;;;;19.75;100.00;-24366.50;5046787;28;20186;-61
2022/06/09 01:40:07;;;;;;;3.58;2.60;;;;;;;19.73;100.00;-24365.94;5044193;28;20610;-64
2022/06/09 01:42:34;;;;;;;4.85;2.75;;;;;;;19.82;100.00;-24368.59;5043937;28;20260;-63
2022/06/09 01:45:09;;;;;;;4.03;2.70;;;;;;;19.36;100.00;-24355.94;5044757;28;20217;-63
2022/06/09 01:47:49;;;;;;;3.92;2.58;;;;;;;19.70;100.00;-24365.25;5027141;28;20284;-63
2022/06/09 01:50:24;;;;;;;3.63;2.83;;;;;;;19.49;100.00;-24359.41;5043267;28;20692;-64
2022/06/09 01:52:52;;;;;;;4.90;2.78;;;;;;;19.21;100.00;-24351.75;5043368;28;20194;-64
2022/06/09 01:55:20;;;;;;;3.67;3.00;;;;;;;19.26;100.00;-24353.00;5043243;28;20664;-62
2022/06/09 01:57:49;;;;;;;3.78;2.92;;;;;;;19.64;100.00;-24363.44;5042316;28;20285;-63
2022/06/09 02:00:18;;;;;;;4.45;3.05;;;;;;;19.61;100.00;-24362.63;5042824;28;20252;-61
2022/06/09 02:02:58;;;;;;;5.05;3.40;;;;;;;19.60;100.00;-24362.34;5040613;28;20773;-61
2022/06/09 02:05:27;;;;;;;3.50;2.75;;;;;;;19.55;100.00;-24360.94;5045082;28;20179;-61
2022/06/09 02:07:56;;;;;;;4.88;3.20;;;;;;;19.64;100.00;-24363.59;5046416;28;20190;-63
2022/06/09 02:10:33;;;;;;;6.05;2.90;;;;;;;19.38;100.00;-24356.50;5040945;28;20264;-64
2022/06/09 02:13:09;;;;;;;4.90;3.13;;;;;;;19.41;100.00;-24357.19;5047463;28;20182;-62
2022/06/09 02:15:43;;;;;;;4.85;3.25;;;;;;;19.06;100.00;-24347.44;5046828;28;20271;-63
2022/06/09 02:18:12;;;;;;;4.10;2.90;;;;;;;19.25;100.00;-24352.88;5046742;28;20642;-61
2022/06/09 02:20:43;;;;;;;4.43;3.10;;;;;;;18.64;100.00;-24336.03;5047876;28;20210;-65
2022/06/09 02:23:13;;;;;;;4.75;3.05;;;;;;;19.00;100.00;-24345.91;5050700;28;20179;-64
2022/06/09 02:25:40;;;;;;;3.65;2.58;;;;;;;18.78;100.00;-24339.94;5046455;28;20187;-64
2022/06/09 02:28:07;;;;;;;4.90;2.92;;;;;;;19.21;100.00;-24351.63;5044451;28;20201;-64
2022/06/09 02:30:34;;;;;;;5.57;3.05;;;;;;;18.84;100.00;-24341.47;5045551;28;20956;-63
2022/06/09 02:32:59;;;;;;;3.78;2.80;;;;;;;19.12;100.00;-24349.13;5047450;28;20175;-62
2022/06/09 02:35:25;;;;;;;5.75;3.30;;;;;;;19.11;100.00;-24348.84;5044212;28;20217;-64
2022/06/09 02:37:50;;;;;;;4.88;3.17;;;;;;;18.83;100.00;-24341.19;5042401;28;20642;-62
2022/06/09 02:40:16;;;;;;;6.88;2.88;;;;;;;18.97;100.00;-24345.22;5044928;28;20696;-62
2022/06/09 02:42:41;;;;;;;4.25;2.85;;;;;;;19.00;100.00;-24345.91;5042001;28;20178;-64
2022/06/09 02:45:07;;;;;;;5.78;3.13;;;;;;;18.73;100.00;-24338.41;5045370;28;20186;-63
2022/06/09 02:47:33;;;;;;;4.00;2.90;;;;;;;18.96;100.00;-24344.81;5043006;28;20206;-60
2022/06/09 02:49:58;;;;;;;4.45;3.03;;;;;;;18.91;100.00;-24343.41;5044423;28;20684;-60
2022/06/09 02:52:24;;;;;;;4.30;3.05;;;;;;;19.29;100.00;-24353.84;5043177;28;20178;-63
2022/06/09 02:54:50;;;;;;;4.25;2.85;;;;;;;19.26;100.00;-24353.00;5045234;28;20189;-69
2022/06/09 02:57:18;;;;;;;4.60;3.00;;;;;;;19.20;100.00;-24351.47;5050488;28;20178;-62
2022/06/09 02:59:44;;;;;;;4.10;2.72;;;;;;;19.18;100.00;-24350.78;5053138;28;20197;-63
2022/06/09 03:02:10;;;;;;;4.72;2.92;;;;;;;19.33;100.00;-24354.97;5050518;28;20182;-62
2022/06/09 03:04:36;;;;;;;4.50;2.72;;;;;;;18.97;100.00;-24345.22;5044906;28;20252;-62
2022/06/09 03:07:02;;;;;;;5.15;3.50;;;;;;;18.90;100.00;-24343.13;5051191;28;20171;-61
2022/06/09 03:09:27;;;;;;;6.78;3.08;;;;;;;19.08;100.00;-24348.00;5046917;28;20182;-61
2022/06/09 03:11:53;;;;;;;4.93;3.20;;;;;;;18.97;100.00;-24345.22;5041149;28;20564;-61
2022/06/09 03:14:18;;;;;;;4.63;3.30;;;;;;;19.11;100.00;-24348.84;5045287;28;20183;-61
2022/06/09 03:16:43;;;;;;;3.85;3.13;;;;;;;19.08;100.00;-24348.16;5039616;28;20645;-60
2022/06/09 03:19:09;;;;;;;5.35;3.42;;;;;;;18.88;100.00;-24342.72;5039974;28;20177;-60
2022/06/09 03:21:36;;;;;;;4.55;3.13;;;;;;;19.33;100.00;-24355.09;5038226;28;20225;-61
2022/06/09 03:24:01;;;;;;;5.68;3.40;;;;;;;19.44;100.00;-24358.03;5041496;28;20233;-63
2022/06/09 03:26:27;;;;;;;7.40;4.00;;;;;;;19.05;100.00;-24347.31;5037836;28;21144;-61
2022/06/09 03:28:53;;;;;;;4.93;3.75;;;;;;;19.07;100.00;-24347.72;5038474;28;20183;-60
2022/06/09 03:31:18;;;;;;;5.97;3.50;;;;;;;19.54;100.00;-24360.81;5039487;28;20222;-60
2022/06/09 03:33:44;;;;;;;4.82;3.05;;;;;;;19.15;100.00;-24350.09;5039217;28;20198;-59
2022/06/09 03:36:10;;;;;;;8.02;3.80;;;;;;;18.98;100.00;-24345.38;5041001;28;20875;-60
2022/06/09 03:38:40;;;;;;;5.45;4.00;;;;;;;18.97;100.00;-24345.22;5037893;28;20286;-60
2022/06/09 03:41:05;;;;;;;7.68;4.47;;;;;;;19.09;100.00;-24348.28;5035929;28;20297;-60
2022/06/09 03:43:31;;;;;;;8.77;4.13;;;;;;;19.73;100.00;-24365.94;5038595;28;20642;-61
2022/06/09 03:45:56;;;;;;;7.10;4.13;;;;;;;19.47;100.00;-24358.84;5041690;28;20613;-58
2022/06/09 03:48:22;;;;;;;6.43;4.20;;;;;;;20.01;100.00;-24373.59;5038459;28;20187;-61
2022/06/09 03:50:47;;;;;;;6.45;4.00;;;;;;;19.80;100.00;-24367.91;5040015;28;20205;-60
2022/06/09 03:53:13;;;;;;;7.43;4.00;;;;;;;19.78;100.00;-24367.34;5039738;28;20256;-61
2022/06/09 03:55:38;;;;;;;5.10;3.67;;;;;;;19.74;100.00;-24366.22;5041712;28;20187;-61
2022/06/09 03:58:04;;;;;;;5.80;3.85;;;;;;;19.60;100.00;-24362.34;5040079;28;20171;-63
2022/06/09 04:00:32;;;;;;;8.35;4.40;;;;;;;19.97;100.00;-24372.50;5038736;28;20229;-61
2022/06/09 04:02:58;;;;;;;5.85;3.90;;;;;;;20.32;100.00;-24382.06;5038528;28;20222;-60
2022/06/09 04:05:25;;;;;;;8.02;4.53;;;;;;;20.34;100.00;-24382.63;5018737;28;20178;-63
2022/06/09 04:07:50;;;;;;;7.22;4.40;;;;;;;20.51;100.00;-24387.34;5035991;28;20269;-61
2022/06/09 04:10:25;;;;;;;7.05;4.28;;;;;;;20.56;100.00;-24388.75;5038227;28;20185;-60
2022/06/09 04:12:50;;;;;;;7.72;4.82;;;;;;;20.33;100.00;-24382.50;5036317;28;20187;-61
2022/06/09 04:15:17;;;;;;;8.18;4.80;;;;;;;20.77;100.00;-24394.41;5036416;28;20183;-60
2022/06/09 04:17:44;;;;;;;6.85;5.03;;;;;;;21.04;100.00;-24402.06;5041384;28;20186;-61
2022/06/09 04:20:10;;;;;;;9.13;4.90;;;;;;;22.27;100.00;-24435.72;5039809;28;20666;-60
2022/06/09 04:22:36;;;;;;;7.18;4.78;;;;;;;22.34;100.00;-24437.66;5043663;28;20190;-61
2022/06/09 04:25:02;;;;;;;8.60;4.50;;;;;;;21.81;100.00;-24423.13;5042562;28;20171;-61
2022/06/09 04:27:27;;;;;;;5.22;3.78;;;;;;;21.62;100.00;-24417.84;5041286;28;20183;-59
2022/06/09 04:29:53;;;;;;;6.38;4.97;;;;;;;21.91;100.00;-24425.75;5041233;28;20186;-62
2022/06/09 04:32:18;;;;;;;8.88;4.63;;;;;;;21.42;100.00;-24412.47;5040629;28;20559;-62
2022/06/09 04:34:44;;;;;;;6.63;4.22;;;;;;;21.93;100.00;-24426.44;5042076;28;20239;-63
2022/06/09 04:37:09;;;;;;;8.15;4.57;;;;;;;22.26;100.00;-24435.31;5044336;28;20577;-62
2022/06/09 04:39:35;;;;;;;7.05;4.43;;;;;;;22.17;100.00;-24432.81;5044944;28;20182;-63
2022/06/09 04:42:00;;;;;;;7.82;4.45;;;;;;;23.01;100.00;-24455.78;5041995;28;20255;-61
2022/06/09 04:44:25;;;;;;;7.22;4.35;;;;;;;23.78;100.00;-24476.91;5043108;28;20179;-62
2022/06/09 04:46:51;;;;;;;8.57;5.20;;;;;;;24.61;100.00;-24499.66;5042048;28;20770;-61
2022/06/09 04:49:16;;;;;;;13.43;5.30;;;;;;;26.03;100.00;-24538.19;5044509;28;20530;-61
2022/06/09 04:51:42;;;;;;;7.18;4.68;;;;;;;27.68;100.00;-24582.94;5046850;28;20174;-63
2022/06/09 04:54:07;;;;;;;5.28;3.95;;;;;;;28.47;100.00;-24604.44;5041808;28;20186;-62
2022/06/09 04:56:34;;;;;;;6.53;4.70;;;;;;;28.65;100.00;-24609.06;5048688;28;20267;-61
2022/06/09 04:59:00;;;;;;;7.93;5.00;;;;;;;28.32;100.00;-24600.19;5049097;28;20190;-61
2022/06/09 05:01:31;;;;;;;6.70;4.43;;;;;;;28.44;99.68;-24603.47;5049696;28;20267;-62
2022/06/09 05:03:58;;;;;;;6.22;4.00;;;;;;;28.67;95.21;-24609.75;5048581;28;20309;-61
2022/06/09 05:06:24;;;;;;;8.82;4.63;;;;;;;28.15;97.92;-24595.53;5049140;28;20174;-61
2022/06/09 05:08:53;;;;;;;6.15;3.97;;;;;;;27.36;100.00;-24574.16;5049773;28;20225;-61
2022/06/09 05:11:18;;;;;;;6.22;4.40;;;;;;;26.92;100.00;-24562.22;5049289;28;20205;-62
2022/06/09 05:13:44;;;;;;;5.70;3.72;;;;;;;26.66;100.00;-24555.22;5049714;28;20637;-62
2022/06/09 05:16:10;;;;;;;5.45;3.63;;;;;;;26.45;100.00;-24549.47;5049810;28;20171;-62
2022/06/09 05:18:37;;;;;;;4.18;3.20;;;;;;;26.09;100.00;-24539.84;5049725;28;20258;-61
2022/06/09 05:21:04;;;;;;;5.35;3.80;;;;;;;25.36;100.00;-24520.03;5049584;28;20198;-61
2022/06/09 05:23:30;;;;;;;6.20;3.72;;;;;;;25.32;100.00;-24518.81;5048798;28;20174;-62
2022/06/09 05:25:58;;;;;;;9.75;4.28;;;;;;;24.90;100.00;-24507.38;5050450;28;20198;-62
2022/06/09 05:28:26;;;;;;;5.88;4.00;;;;;;;25.43;100.00;-24521.97;5048867;28;20191;-62
2022/06/09 05:30:52;;;;;;;6.85;3.60;;;;;;;26.42;100.00;-24548.63;5047684;28;20182;-61
2022/06/09 05:33:18;;;;;;;4.20;3.20;;;;;;;27.35;100.00;-24573.88;5049919;28;20296;-62
2022/06/09 05:35:45;;;;;;;4.68;3.22;;;;;;;27.73;98.37;-24584.31;5049402;28;20748;-60
2022/06/09 05:46:26;;;;;;;4.25;2.78;;;;;;;28.31;90.47;-24599.91;5047141;28;20274;-61
2022/06/09 05:48:52;;;;;;;3.38;2.72;;;;;;;27.31;93.40;-24572.78;5049504;28;20625;-62
2022/06/09 05:51:17;;;;;;;4.30;3.22;;;;;;;27.34;97.77;-24573.75;5049034;28;20685;-61
2022/06/09 05:53:44;;;;;;;4.00;3.17;;;;;;;26.81;97.07;-24559.34;5047908;28;20645;-62
2022/06/09 05:56:10;;;;;;;3.72;3.25;;;;;;;26.71;98.44;-24556.75;5049519;28;20175;-76
2022/06/09 05:58:36;;;;;;;6.50;4.32;;;;;;;26.72;100.00;-24557.03;5049263;28;20187;-74
2022/06/09 06:01:05;;;;;;;9.10;5.13;;;;;;;26.65;99.57;-24555.09;5049663;28;20202;-72
2022/06/09 06:03:31;;;;;;;6.88;4.40;;;;;;;26.28;100.00;-24544.94;5049743;28;20262;-73
2022/06/09 06:08:40;;;;;;;4.18;3.05;;;;;;;26.73;100.00;-24557.28;5054462;28;20256;-73
2022/06/09 06:11:07;;;;;;;4.35;3.15;;;;;;;26.32;100.00;-24546.16;5053699;28;20584;-75
2022/06/09 06:13:33;;;;;;;5.47;3.67;;;;;;;25.86;100.00;-24533.53;5043252;28;20191;-75
2022/06/09 06:15:58;;;;;;;5.03;3.35;;;;;;;25.83;100.00;-24532.69;5053350;28;20190;-74
2022/06/09 06:18:24;;;;;;;3.55;2.92;;;;;;;26.23;100.00;-24543.69;5052645;28;20641;-74
2022/06/09 06:20:51;;;;;;;6.38;3.53;;;;;;;26.04;100.00;-24538.34;5034220;28;20293;-76
2022/06/09 06:23:16;;;;;;;5.32;3.42;;;;;;;26.12;100.00;-24540.53;5034683;28;20179;-73
2022/06/09 06:25:42;;;;;;;4.30;2.83;;;;;;;26.51;100.00;-24551.13;5053244;28;20174;-73
2022/06/09 06:28:08;;;;;;;3.70;2.92;;;;;;;26.18;100.00;-24542.19;5031552;28;20671;-75
2022/06/09 06:30:33;;;;;;;4.22;2.90;;;;;;;25.59;100.00;-24526.25;5052630;28;20182;-74
2022/06/09 06:32:59;;;;;;;4.90;3.55;;;;;;;24.75;100.00;-24503.38;5054894;28;20633;-75
2022/06/09 06:35:24;;;;;;;5.53;3.90;;;;;;;23.95;100.00;-24481.59;5053255;28;20257;-74
2022/06/09 06:37:50;;;;;;;5.45;3.40;;;;;;;24.61;100.00;-24499.66;5052735;28;20179;-74
2022/06/09 06:40:16;;;;;;;7.03;3.83;;;;;;;24.28;100.00;-24490.44;5053430;28;20248;-75
2022/06/09 06:42:42;;;;;;;4.57;3.13;;;;;;;25.04;100.00;-24511.25;5053746;28;20626;-74
2022/06/09 06:45:11;;;;;;;4.43;3.38;;;;;;;24.14;100.00;-24486.69;5041568;28;20708;-74
2022/06/09 06:47:38;;;;;;;4.78;3.17;;;;;;;23.70;100.00;-24474.84;5053123;28;20182;-73
2022/06/09 06:50:05;;;;;;;4.68;3.30;;;;;;;24.07;100.00;-24484.78;5054354;28;20603;-75
2022/06/09 06:52:30;;;;;;;5.57;3.20;;;;;;;24.19;100.00;-24488.22;5053229;28;21943;-72
2022/06/09 06:54:56;;;;;;;3.60;2.70;;;;;;;24.56;100.00;-24498.16;5052592;28;20212;-75
2022/06/09 06:57:21;;;;;;;3.40;2.90;;;;;;;24.71;100.00;-24502.28;5051743;28;20193;-74
2022/06/09 06:59:46;;;;;;;3.40;2.67;;;;;;;24.98;100.00;-24509.72;5053553;28;20186;-74
2022/06/09 07:02:12;;;;;;;3.97;2.80;;;;;;;24.91;100.00;-24507.66;5051768;28;20272;-72
2022/06/09 07:04:38;;;;;;;3.72;2.58;;;;;;;24.86;100.00;-24506.41;5034027;28;20650;-73
2022/06/09 07:07:04;;;;;;;3.97;2.83;;;;;;;25.24;100.00;-24516.75;5052411;28;20182;-72
2022/06/09 07:09:29;;;;;;;3.67;2.65;;;;;;;25.07;100.00;-24512.19;5051358;28;20634;-73
2022/06/09 07:11:54;;;;;;;5.22;2.92;;;;;;;25.40;100.00;-24521.00;5051882;28;20210;-73
2022/06/09 07:14:20;;;;;;;3.53;2.53;;;;;;;25.44;100.00;-24522.25;5052241;28;20171;-74
2022/06/09 07:16:46;;;;;;;4.05;2.70;;;;;;;25.34;100.00;-24519.50;5033723;28;20179;-73
2022/06/09 07:19:14;;;;;;;6.90;3.38;;;;;;;25.03;100.00;-24510.97;5051630;28;20179;-73
2022/06/09 07:21:39;;;;;;;5.68;3.35;;;;;;;24.50;100.00;-24496.50;5050970;28;20290;-74
2022/06/09 07:24:05;;;;;;;4.13;2.67;;;;;;;24.32;100.00;-24491.69;5051799;28;20261;-74
2022/06/09 07:26:30;;;;;;;4.38;2.70;;;;;;;24.20;100.00;-24488.38;5051056;28;21064;-74
2022/06/09 07:28:56;;;;;;;3.45;2.70;;;;;;;24.51;100.00;-24496.91;5052343;28;20178;-75
2022/06/09 07:31:21;;;;;;;4.07;2.80;;;;;;;24.78;100.00;-24504.22;5051251;28;20665;-73
2022/06/09 07:33:47;;;;;;;4.78;2.97;;;;;;;24.69;100.00;-24501.59;5052210;28;20174;-72
2022/06/09 07:36:18;;;;;;;4.90;3.25;;;;;;;24.95;100.00;-24508.91;5051558;28;20726;-75
2022/06/09 07:38:43;;;;;;;5.03;3.20;;;;;;;25.56;100.00;-24525.41;5050136;28;20186;-74
2022/06/09 07:41:09;;;;;;;7.10;3.33;;;;;;;25.52;100.00;-24524.31;5051388;28;20209;-73
2022/06/09 07:43:35;;;;;;;3.88;2.95;;;;;;;26.18;100.00;-24542.19;5050578;28;20187;-75
2022/06/09 07:46:01;;;;;;;4.18;3.25;;;;;;;26.43;97.86;-24548.91;5051025;28;20312;-74
2022/06/09 07:48:27;;;;;;;4.28;2.97;;;;;;;26.37;96.74;-24547.53;5047805;28;20721;-62
2022/06/09 07:50:53;;;;;;;4.53;3.08;;;;;;;26.75;96.86;-24557.84;5051951;28;20604;-62
2022/06/09 07:53:20;;;;;;;4.20;3.15;;;;;;;27.01;98.19;-24564.84;5050781;28;20686;-63
2022/06/09 07:55:46;;;;;;;4.90;3.30;;;;;;;27.24;96.19;-24571.00;5051265;28;20270;-62
2022/06/09 07:58:13;;;;;;;5.85;3.22;;;;;;;26.81;93.50;-24559.34;5050922;28;20214;-63
2022/06/09 08:00:39;;;;;;;4.10;3.33;;;;;;;26.57;93.79;-24552.91;5050978;28;20237;-62
2022/06/09 08:03:06;;;;;;;6.38;3.50;;;;;;;26.50;96.08;-24550.97;5051335;28;20717;-62
2022/06/09 08:05:32;;;;;;;4.57;3.17;;;;;;;26.34;94.11;-24546.59;5050643;28;20185;-62
2022/06/09 08:07:58;;;;;;;4.60;3.17;;;;;;;26.79;93.45;-24558.78;5033035;28;20186;-62
2022/06/09 08:10:26;;;;;;;4.57;3.38;;;;;;;26.58;93.20;-24553.03;5050287;28;20236;-63
2022/06/09 08:12:57;;;;;;;4.10;3.00;;;;;;;26.67;94.48;-24555.50;5048761;28;20197;-62
2022/06/09 08:15:27;;;;;;;4.22;3.15;;;;;;;26.62;95.92;-24554.28;5050370;28;20178;-61
2022/06/09 08:17:53;;;;;;;4.93;3.33;;;;;;;27.02;94.24;-24564.97;5049354;28;20556;-63
2022/06/09 08:20:19;;;;;;;5.10;3.55;;;;;;;26.64;90.28;-24554.69;5050180;28;20290;-63
2022/06/09 08:22:45;;;;;;;4.65;3.28;;;;;;;26.21;94.95;-24543.00;5051648;28;20598;-62
2022/06/09 08:25:14;;;;;;;4.28;3.25;;;;;;;25.94;100.00;-24535.72;5050707;28;20188;-64
2022/06/09 08:27:40;;;;;;;4.85;3.45;;;;;;;26.30;96.34;-24545.63;5050434;28;20183;-63
2022/06/09 08:30:08;;;;;;;4.53;3.40;;;;;;;26.91;91.17;-24562.09;5050880;28;20170;-64
2022/06/09 08:32:34;;;;;;;4.20;3.13;;;;;;;26.90;89.27;-24561.81;5050243;28;20182;-62
2022/06/09 08:35:00;;;;;;;5.53;3.30;;;;;;;26.52;90.25;-24551.53;5050536;28;20661;-62
2022/06/09 08:37:26;;;;;;;6.13;3.20;;;;;;;26.30;96.34;-24545.63;5050133;28;20660;-62
2022/06/09 08:39:52;;;;;;;5.38;3.33;;;;;;;26.72;93.26;-24556.88;5050755;28;20174;-61
2022/06/09 08:42:50;;;;;;;4.35;3.25;;;;;;;27.31;92.86;-24572.78;5050461;28;20213;-62
2022/06/09 08:45:27;;;;;;;4.90;3.20;;;;;;;27.55;91.42;-24579.50;4996510;28;20192;-61
2022/06/09 08:47:55;;;;;;;4.65;3.38;;;;;;;27.96;88.11;-24590.59;5048577;28;20637;-62
2022/06/09 08:50:31;;;;;;;4.22;3.20;;;;;;;26.87;90.80;-24561.00;5049966;28;20663;-62
2022/06/09 08:53:11;;;;;;;4.70;3.30;;;;;;;26.91;91.03;-24562.09;5048732;28;20178;-62
2022/06/09 08:55:51;;;;;;;5.05;3.67;;;;;;;26.70;92.06;-24556.31;5050014;28;20285;-63
2022/06/09 08:58:28;;;;;;;5.40;3.70;;;;;;;26.91;89.55;-24561.97;5047206;28;20182;-62
2022/06/09 09:01:29;;;;;;;3.90;3.20;;;;;;;27.03;92.16;-24565.38;5050968;28;20190;-62
2022/06/09 09:03:59;;;;;;;6.40;3.65;;;;;;;26.96;90.95;-24563.47;5048461;28;20283;-62
2022/06/09 09:06:40;;;;;;;5.70;3.67;;;;;;;26.83;91.51;-24559.91;5047616;28;20182;-63
2022/06/09 09:09:23;;;;;;;4.63;3.70;;;;;;;27.43;91.23;-24576.06;5049727;28;20579;-62
2022/06/09 09:11:58;;;;;;;5.35;3.58;;;;;;;27.46;91.08;-24576.91;5050396;28;20185;-62
2022/06/09 09:14:43;;;;;;;7.13;4.10;;;;;;;26.89;91.56;-24561.56;5050108;28;20638;-62
2022/06/09 09:17:38;;;;;;;7.00;3.55;;;;;;;27.19;90.81;-24569.78;5046756;28;20181;-62
2022/06/09 09:20:47;;;;;;;5.53;3.95;;;;;;;27.30;95.15;-24572.66;5040925;28;20190;-64
2022/06/09 09:23:19;;;;;;;6.35;3.97;;;;;;;27.21;93.86;-24570.31;4948789;29;20657;-62
2022/06/09 09:25:56;;;;;;;5.43;3.80;;;;;;;27.39;90.57;-24574.97;4931720;29;20238;-62
2022/06/09 09:28:30;;;;;;;5.35;3.80;;;;;;;27.38;89.88;-24574.72;5008454;28;20190;-62
2022/06/09 09:31:26;;;;;;;4.25;3.30;;;;;;;27.01;89.91;-24564.84;5047894;28;20630;-61
2022/06/09 09:33:52;;;;;;;4.75;3.40;;;;;;;26.51;90.81;-24551.25;5049257;28;20175;-62
2022/06/09 09:36:22;;;;;;;4.47;3.50;;;;;;;26.77;89.46;-24558.25;5047665;28;20196;-62
2022/06/09 09:39:02;;;;;;;4.07;3.13;;;;;;;27.17;87.38;-24569.22;5047544;28;20265;-62
2022/06/09 09:41:36;;;;;;;4.30;3.22;;;;;;;27.48;89.51;-24577.59;5050441;28;20244;-63
2022/06/09 09:44:22;;;;;;;4.40;3.42;;;;;;;27.48;88.06;-24577.44;5053055;28;20606;-62
2022/06/09 09:46:51;;;;;;;5.97;3.40;;;;;;;27.43;88.46;-24576.06;5052971;28;20202;-62
2022/06/09 09:49:29;;;;;;;4.40;3.42;;;;;;;27.52;86.08;-24578.69;5052841;28;20202;-63
2022/06/09 09:51:56;;;;;;;5.43;3.70;;;;;;;27.61;89.64;-24581.00;5053391;28;20634;-63
2022/06/09 09:54:27;;;;;;;4.50;3.55;;;;;;;27.52;86.63;-24578.56;5052617;28;20175;-62
2022/06/09 09:57:06;;;;;;;6.93;3.40;;;;;;;26.77;91.38;-24558.25;5051553;28;20186;-61
2022/06/09 09:59:52;;;;;;;4.30;3.33;;;;;;;27.21;91.24;-24570.19;5052753;28;20920;-62
2022/06/09 10:08:36;;;;;;;4.18;3.28;;;;;;;27.06;88.16;-24566.22;5050141;28;20182;-62
2022/06/09 10:11:53;;;;;;;4.40;3.28;;;;;;;27.06;83.32;-24566.06;5052087;28;20182;-62
2022/06/09 10:13:51;;;;;;;4.32;3.10;;;;;;;27.16;84.67;-24568.94;5052715;28;20195;-62
2022/06/09 10:16:19;;;;;;;5.30;3.38;;;;;;;27.81;80.31;-24586.34;5052851;28;20170;-62
2022/06/09 10:18:48;;;;;;;6.00;3.80;;;;;;;27.32;81.13;-24573.06;5051649;28;20190;-62
2022/06/09 10:21:14;;;;;;;5.65;3.65;;;;;;;27.57;88.30;-24579.91;5034300;28;20198;-62
2022/06/09 10:23:56;;;;;;;4.82;3.50;;;;;;;27.28;90.31;-24572.09;5052028;28;20171;-63
2022/06/09 10:26:33;;;;;;;4.95;3.80;;;;;;;27.87;89.71;-24588.00;5050643;28;20212;-62
2022/06/09 10:29:02;;;;;;;6.57;4.20;;;;;;;27.78;89.50;-24585.69;5051993;28;20717;-62
2022/06/09 10:31:35;;;;;;;5.45;4.05;;;;;;;27.43;90.38;-24576.06;5052349;28;20175;-62
2022/06/09 10:34:07;;;;;;;5.43;4.10;;;;;;;27.67;92.01;-24582.81;5052841;28;20197;-62
2022/06/09 10:36:59;;;;;;;4.95;3.90;;;;;;;27.56;93.25;-24579.66;5052053;28;20508;-62
2022/06/09 10:39:49;;;;;;;5.65;3.88;;;;;;;26.86;91.24;-24560.72;5050510;28;20214;-62
2022/06/09 10:42:44;;;;;;;5.63;3.47;;;;;;;26.72;95.08;-24556.88;5051571;28;20191;-63
2022/06/09 10:45:28;;;;;;;4.35;3.40;;;;;;;26.56;95.28;-24552.47;5048580;28;20178;-61
2022/06/09 10:57:13;;;;;;;4.05;3.13;;;;;;;27.18;93.65;-24569.38;5049762;28;20240;-62
2022/06/09 10:59:56;;;;;;;7.90;4.05;;;;;;;27.28;90.34;-24572.09;5052537;28;20174;-62
2022/06/09 11:02:25;;;;;;;5.55;3.83;;;;;;;27.34;88.06;-24573.63;5048221;28;20337;-63
2022/06/09 11:04:52;;;;;;;4.53;3.67;;;;;;;28.00;87.96;-24591.56;5052594;28;20253;-61
2022/06/09 11:07:23;;;;;;;5.65;3.60;;;;;;;28.38;86.43;-24601.84;5051997;28;20205;-62
2022/06/09 11:09:49;;;;;;;5.43;4.03;;;;;;;28.30;85.43;-24599.78;5051810;28;20182;-63
2022/06/09 11:12:48;;;;;;;5.45;3.60;;;;;;;27.80;87.55;-24586.22;5051816;28;20240;-63
2022/06/09 11:15:46;;;;;;;4.78;3.42;;;;;;;28.23;87.93;-24597.88;5049074;28;20548;-62
2022/06/09 11:18:28;;;;;;;4.45;3.20;;;;;;;27.61;88.25;-24581.00;5048723;28;20181;-62
2022/06/09 11:21:03;;;;;;;5.50;3.65;;;;;;;27.71;91.19;-24583.63;5050207;28;20336;-63
2022/06/09 11:23:39;;;;;;;4.18;3.38;;;;;;;27.53;85.42;-24578.81;5051458;28;20638;-63
2022/06/09 11:26:25;;;;;;;4.28;3.30;;;;;;;27.94;84.02;-24589.91;5051809;28;20178;-62
2022/06/09 11:29:07;;;;;;;5.45;3.20;;;;;;;28.20;82.88;-24596.91;5052055;28;20190;-63
2022/06/09 11:32:02;;;;;;;5.63;3.30;;;;;;;28.28;82.58;-24599.22;5049659;28;20283;-64
2022/06/09 11:34:45;;;;;;;3.58;3.03;;;;;;;28.80;83.49;-24613.19;5049888;28;20569;-63
2022/06/09 11:37:17;;;;;;;5.88;3.35;;;;;;;28.56;84.80;-24606.75;5047934;28;20175;-64
2022/06/09 11:39:55;;;;;;;4.13;3.00;;;;;;;28.33;84.74;-24600.47;5050934;28;20236;-63
2022/06/09 11:43:02;;;;;;;5.22;3.15;;;;;;;28.16;81.28;-24595.81;5048830;28;20206;-63
2022/06/09 11:45:37;;;;;;;6.55;3.45;;;;;;;28.61;85.19;-24607.97;5008263;28;20194;-64
2022/06/09 11:48:05;;;;;;;4.40;3.30;;;;;;;28.72;83.84;-24611.00;5051417;28;20193;-63
2022/06/09 11:50:40;;;;;;;5.78;3.88;;;;;;;28.54;83.46;-24606.22;5050792;28;21560;-63
2022/06/09 11:53:07;;;;;;;3.28;2.90;;;;;;;28.97;79.22;-24617.97;5051063;28;20261;-63
2022/06/09 11:55:59;;;;;;;4.18;2.78;;;;;;;28.83;78.55;-24614.13;5051059;28;20200;-63
2022/06/09 11:58:34;;;;;;;3.38;2.63;;;;;;;28.67;81.22;-24609.63;5049233;28;20231;-64
2022/06/09 12:01:18;;;;;;;5.43;3.15;;;;;;;28.45;79.75;-24603.75;5049339;28;20200;-63